createdAt,value
2022-11-29T00:00:33.468Z,8.73
2022-11-29T00:03:10.120Z,9.75
2022-11-29T00:05:48.857Z,13.45
2022-11-29T00:08:29.560Z,12.48
2022-11-29T00:11:16.575Z,11.50
2022-11-29T00:13:53.507Z,13.48
2022-11-29T00:16:25.314Z,12.50
2022-11-29T00:19:00.360Z,12.93
2022-11-29T00:21:39.269Z,14.93
2022-11-29T00:24:15.700Z,14.02
2022-11-29T00:26:56.384Z,13.73
2022-11-29T00:29:27.319Z,20.98
2022-11-29T00:31:57.244Z,16.27
2022-11-29T00:37:25.258Z,25.20
2022-11-29T00:40:02.035Z,19.75
2022-11-29T00:42:43.126Z,20.20
2022-11-29T00:45:16.551Z,22.15
2022-11-29T00:47:50.518Z,18.10
2022-11-29T00:53:00.517Z,18.42
2022-11-29T00:55:32.911Z,21.33
2022-11-29T00:58:08.076Z,21.35
2022-11-29T01:00:43.029Z,19.30
2022-11-29T01:03:17.933Z,21.48
2022-11-29T01:05:54.364Z,26.60
2022-11-29T01:08:35.321Z,21.42
2022-11-29T01:11:10.005Z,21.63
2022-11-29T01:13:48.583Z,19.80
2022-11-29T01:16:23.036Z,22.23
2022-11-29T01:18:52.074Z,25.20
2022-11-29T01:21:27.204Z,23.15
2022-11-29T01:24:03.660Z,19.50
2022-11-29T01:26:43.114Z,27.55
2022-11-29T01:29:22.987Z,20.17
2022-11-29T01:31:56.971Z,21.17
2022-11-29T01:34:30.834Z,23.05
2022-11-29T01:37:08.101Z,22.88
2022-11-29T01:39:57.565Z,25.88
2022-11-29T01:42:33.692Z,21.30
2022-11-29T01:45:20.122Z,19.40
2022-11-29T01:48:00.585Z,17.73
2022-11-29T01:50:39.143Z,18.73
2022-11-29T01:53:13.540Z,18.20
2022-11-29T01:55:53.847Z,18.52
2022-11-29T01:58:31.164Z,14.95
2022-11-29T02:01:02.758Z,17.60
2022-11-29T02:03:31.284Z,14.77
2022-11-29T02:06:11.825Z,15.80
2022-11-29T02:08:43.823Z,16.05
2022-11-29T02:11:44.752Z,14.82
2022-11-29T02:14:33.403Z,14.32
2022-11-29T02:17:12.396Z,15.75
2022-11-29T02:20:06.795Z,19.40
2022-11-29T02:22:47.347Z,16.10
2022-11-29T02:25:29.543Z,14.52
2022-11-29T02:28:42.775Z,14.75
2022-11-29T02:31:45.650Z,16.40
2022-11-29T02:34:56.807Z,26.27
2022-11-29T02:37:59.732Z,17.35
2022-11-29T02:40:57.424Z,16.55
2022-11-29T02:44:03.711Z,16.05
2022-11-29T02:46:56.258Z,15.60
2022-11-29T02:49:42.041Z,18.33
2022-11-29T02:52:20.622Z,14.93
2022-11-29T02:54:56.256Z,14.10
2022-11-29T02:57:37.166Z,15.38
2022-11-29T03:00:12.523Z,16.83
2022-11-29T03:02:55.570Z,16.42
2022-11-29T03:05:38.104Z,15.57
2022-11-29T03:08:15.131Z,15.88
2022-11-29T03:10:57.369Z,17.85
2022-11-29T03:13:44.497Z,16.05
2022-11-29T03:16:23.463Z,22.38
2022-11-29T03:19:05.482Z,19.63
2022-11-29T03:21:43.764Z,19.42
2022-11-29T03:24:23.196Z,18.60
2022-11-29T03:27:00.578Z,18.13
2022-11-29T03:29:40.434Z,18.13
2022-11-29T03:32:17.279Z,16.40
2022-11-29T03:34:59.917Z,17.65
2022-11-29T03:37:42.821Z,21.08
2022-11-29T03:40:18.895Z,24.92
2022-11-29T03:42:57.747Z,20.77
2022-11-29T03:45:38.198Z,23.00
2022-11-29T03:48:15.958Z,25.77
2022-11-29T03:50:57.012Z,20.80
2022-11-29T03:53:40.151Z,19.88
2022-11-29T03:56:32.569Z,22.33
2022-11-29T03:59:17.948Z,25.42
2022-11-29T04:02:30.362Z,27.20
2022-11-29T04:05:30.277Z,26.00
2022-11-29T04:08:32.521Z,28.85
2022-11-29T04:11:33.074Z,29.00
2022-11-29T04:14:38.591Z,30.02
2022-11-29T04:17:48.794Z,29.33
2022-11-29T04:20:55.956Z,29.98
2022-11-29T04:24:05.383Z,28.00
2022-11-29T04:27:09.300Z,35.95
2022-11-29T04:30:10.629Z,33.28
2022-11-29T04:33:21.589Z,32.78
2022-11-29T04:36:30.516Z,41.78
2022-11-29T04:39:38.810Z,33.55
2022-11-29T04:42:38.083Z,31.83
2022-11-29T04:46:02.353Z,31.10
2022-11-29T04:48:55.659Z,28.95
2022-11-29T04:51:43.203Z,27.08
2022-11-29T04:54:30.506Z,27.17
2022-11-29T04:57:07.337Z,24.27
2022-11-29T04:59:48.834Z,26.83
2022-11-29T05:02:37.666Z,28.25
2022-11-29T05:05:24.992Z,27.63
2022-11-29T05:08:18.023Z,23.90
2022-11-29T05:11:06.418Z,24.90
2022-11-29T05:13:55.512Z,25.38
2022-11-29T05:16:44.555Z,25.27
2022-11-29T05:19:43.631Z,24.35
2022-11-29T05:22:36.719Z,22.95
2022-11-29T05:25:33.636Z,21.98
2022-11-29T05:28:13.774Z,18.33
2022-11-29T05:31:20.665Z,20.70
2022-11-29T05:34:26.365Z,19.80
2022-11-29T05:37:13.128Z,20.48
2022-11-29T05:39:58.695Z,15.70
2022-11-29T05:42:52.811Z,17.00
2022-11-29T05:45:31.775Z,15.98
2022-11-29T05:48:05.889Z,16.45
2022-11-29T05:50:40.716Z,17.83
2022-11-29T05:55:54.053Z,12.85
2022-11-29T05:58:30.745Z,20.13
2022-11-29T06:01:18.711Z,15.27
2022-11-29T06:04:00.195Z,16.17
2022-11-29T06:06:40.366Z,15.02
2022-11-29T06:09:17.218Z,14.20
2022-11-29T06:11:49.738Z,15.13
2022-11-29T06:14:50.219Z,13.18
2022-11-29T06:17:43.145Z,15.00
2022-11-29T06:20:31.477Z,12.05
2022-11-29T06:23:23.726Z,13.00
2022-11-29T06:26:07.534Z,12.35
2022-11-29T06:28:50.559Z,11.70
2022-11-29T06:31:27.971Z,14.63
2022-11-29T06:34:11.496Z,16.10
2022-11-29T06:36:53.410Z,14.70
2022-11-29T06:39:26.526Z,12.20
2022-11-29T06:41:55.650Z,16.77
2022-11-29T06:44:25.839Z,12.13
2022-11-29T06:47:03.367Z,14.07
2022-11-29T06:49:38.191Z,13.13
2022-11-29T06:52:27.925Z,11.85
2022-11-29T06:55:10.253Z,9.55
2022-11-29T06:57:54.827Z,10.13
2022-11-29T07:00:26.946Z,12.80
2022-11-29T07:03:13.433Z,14.20
2022-11-29T07:05:44.143Z,10.80
2022-11-29T07:08:25.159Z,10.73
2022-11-29T07:11:03.057Z,11.30
2022-11-29T07:13:34.384Z,12.73
2022-11-29T07:16:11.225Z,11.85
2022-11-29T07:18:54.679Z,13.93
2022-11-29T07:21:47.956Z,13.80
2022-11-29T07:24:33.025Z,14.43
2022-11-29T07:27:12.765Z,12.30
2022-11-29T07:29:49.757Z,12.02
2022-11-29T07:32:28.526Z,11.05
2022-11-29T07:35:05.614Z,12.93
2022-11-29T07:37:45.914Z,11.77
2022-11-29T07:40:20.729Z,9.93
2022-11-29T07:43:08.190Z,9.77
2022-11-29T07:45:38.017Z,13.10
2022-11-29T07:48:07.194Z,12.82
2022-11-29T07:50:37.099Z,13.25
2022-11-29T07:53:18.159Z,11.23
2022-11-29T07:55:50.335Z,12.40
2022-11-29T07:58:22.075Z,13.75
2022-11-29T08:00:50.990Z,16.92
2022-11-29T08:03:24.621Z,14.27
2022-11-29T08:05:53.700Z,16.17
2022-11-29T08:08:25.591Z,16.20
2022-11-29T08:10:58.619Z,17.42
2022-11-29T08:13:29.355Z,16.83
2022-11-29T08:15:59.902Z,16.17
2022-11-29T08:18:29.798Z,19.35
2022-11-29T08:21:07.000Z,19.75
2022-11-29T08:23:36.167Z,16.10
2022-11-29T08:26:05.762Z,20.10
2022-11-29T08:28:35.981Z,20.48
2022-11-29T08:31:10.184Z,19.38
2022-11-29T08:33:44.932Z,16.45
2022-11-29T08:38:44.480Z,19.35
2022-11-29T08:41:16.322Z,16.90
2022-11-29T08:43:51.457Z,18.15
2022-11-29T08:46:21.202Z,19.27
2022-11-29T08:48:51.006Z,22.48
2022-11-29T08:51:20.345Z,18.30
2022-11-29T08:53:53.999Z,19.90
2022-11-29T08:57:16.498Z,21.15
2022-11-29T08:59:17.126Z,20.55
2022-11-29T09:01:46.789Z,20.27
2022-11-29T09:04:18.096Z,22.02
2022-11-29T09:06:49.870Z,29.23
2022-11-29T09:09:19.364Z,22.92
2022-11-29T09:11:49.754Z,22.88
2022-11-29T09:14:22.224Z,31.02
2022-11-29T09:16:50.965Z,29.13
2022-11-29T09:19:20.742Z,28.65
2022-11-29T09:21:50.555Z,24.20
2022-11-29T09:24:21.290Z,22.13
2022-11-29T09:26:49.852Z,24.58
2022-11-29T09:29:23.176Z,23.55
2022-11-29T09:31:53.237Z,27.23
2022-11-29T09:34:22.710Z,27.38
2022-11-29T09:36:52.320Z,25.10
2022-11-29T09:39:21.433Z,25.48
2022-11-29T09:42:10.262Z,34.67
2022-11-29T09:44:56.196Z,29.35
2022-11-29T09:47:39.576Z,34.13
2022-11-29T09:50:26.080Z,34.78
2022-11-29T09:53:07.570Z,37.65
2022-11-29T09:55:57.359Z,48.55
2022-11-29T09:58:30.465Z,34.83
2022-11-29T10:01:07.270Z,40.28
2022-11-29T10:03:47.305Z,42.88
2022-11-29T10:06:26.330Z,36.35
2022-11-29T10:09:01.297Z,34.53
2022-11-29T10:11:37.240Z,32.63
2022-11-29T10:14:16.229Z,35.33
2022-11-29T10:16:55.531Z,50.75
2022-11-29T10:19:33.276Z,44.55
2022-11-29T10:22:09.546Z,36.90
2022-11-29T10:24:42.880Z,38.42
2022-11-29T10:27:18.425Z,39.65
2022-11-29T10:29:51.376Z,49.53
2022-11-29T10:32:24.855Z,34.15
2022-11-29T10:34:57.566Z,46.83
2022-11-29T10:37:32.606Z,39.78
2022-11-29T10:40:05.557Z,36.42
2022-11-29T10:42:49.822Z,35.85
2022-11-29T10:45:33.191Z,29.58
2022-11-29T10:48:12.437Z,37.85
2022-11-29T10:50:44.719Z,35.42
2022-11-29T10:53:17.379Z,32.40
2022-11-29T10:55:51.937Z,36.85
2022-11-29T11:01:01.570Z,26.73
2022-11-29T11:03:37.465Z,30.27
2022-11-29T11:06:14.599Z,37.78
2022-11-29T11:08:47.455Z,37.03
2022-11-29T11:11:26.532Z,50.00
2022-11-29T11:14:03.751Z,49.78
2022-11-29T11:16:37.721Z,38.65
2022-11-29T11:19:27.916Z,44.55
2022-11-29T11:21:58.438Z,43.78
2022-11-29T11:24:31.724Z,44.85
2022-11-29T11:27:02.342Z,45.75
2022-11-29T11:29:37.349Z,41.72
2022-11-29T11:32:17.439Z,42.22
2022-11-29T11:34:54.861Z,39.33
2022-11-29T11:37:27.319Z,40.83
2022-11-29T11:39:58.081Z,42.20
2022-11-29T11:42:40.889Z,42.72
2022-11-29T11:45:31.407Z,40.28
2022-11-29T11:48:04.132Z,39.22
2022-11-29T11:50:45.245Z,36.85
2022-11-29T11:53:22.892Z,37.20
2022-11-29T11:55:59.463Z,31.10
2022-11-29T11:58:31.382Z,36.53
2022-11-29T12:01:06.099Z,32.25
2022-11-29T12:03:49.489Z,31.10
2022-11-29T12:06:43.246Z,31.98
2022-11-29T12:09:21.426Z,30.17
2022-11-29T12:12:04.641Z,27.45
2022-11-29T12:14:42.629Z,29.73
2022-11-29T12:17:21.521Z,33.20
2022-11-29T12:20:06.503Z,39.55
2022-11-29T12:25:23.811Z,28.02
2022-11-29T12:27:53.314Z,29.70
2022-11-29T12:30:22.755Z,55.53
2022-11-29T12:33:04.316Z,54.95
2022-11-29T12:35:46.820Z,45.22
2022-11-29T12:38:33.359Z,42.03
2022-11-29T12:41:13.060Z,41.00
2022-11-29T12:43:54.914Z,34.45
2022-11-29T12:46:26.712Z,35.90
2022-11-29T12:49:02.559Z,40.92
2022-11-29T12:51:45.820Z,34.85
2022-11-29T12:54:38.040Z,31.88
2022-11-29T12:57:16.374Z,33.33
2022-11-29T13:00:07.315Z,37.30
2022-11-29T13:02:48.644Z,35.13
2022-11-29T13:05:37.971Z,34.88
2022-11-29T13:08:30.128Z,37.20
2022-11-29T13:11:14.530Z,32.50
2022-11-29T13:13:46.637Z,43.10
2022-11-29T13:16:33.266Z,41.13
2022-11-29T13:19:12.479Z,50.67
2022-11-29T13:21:48.150Z,41.13
2022-11-29T13:24:25.016Z,39.28
2022-11-29T13:26:57.095Z,37.45
2022-11-29T13:29:28.225Z,40.75
2022-11-29T13:31:58.958Z,37.67
2022-11-29T13:34:33.453Z,35.72
2022-11-29T13:37:14.960Z,33.47
2022-11-29T13:39:58.266Z,42.60
2022-11-29T13:42:40.302Z,37.08
2022-11-29T13:45:22.739Z,40.25
2022-11-29T13:47:53.373Z,41.47
2022-11-29T13:50:41.045Z,30.85
2022-11-29T13:53:16.989Z,34.45
2022-11-29T13:55:48.763Z,34.47
2022-11-29T13:58:35.855Z,33.08
2022-11-29T14:01:09.919Z,36.55
2022-11-29T14:03:41.135Z,37.83
2022-11-29T14:06:22.208Z,34.40
2022-11-29T14:09:26.149Z,34.97
2022-11-29T14:12:02.704Z,34.42
2022-11-29T14:14:38.773Z,35.67
2022-11-29T14:17:33.918Z,36.13
2022-11-29T14:20:44.546Z,42.67
2022-11-29T14:23:28.160Z,41.53
2022-11-29T14:26:28.641Z,39.88
2022-11-29T14:29:00.311Z,42.80
2022-11-29T14:31:55.223Z,45.20
2022-11-29T14:34:51.345Z,34.17
2022-11-29T14:37:34.904Z,35.72
2022-11-29T14:40:17.019Z,33.55
2022-11-29T14:42:49.471Z,37.03
2022-11-29T14:45:31.164Z,32.15
2022-11-29T14:48:03.124Z,34.30
2022-11-29T14:50:37.325Z,36.03
2022-11-29T14:53:07.909Z,32.67
2022-11-29T14:55:38.846Z,34.13
2022-11-29T14:58:21.242Z,41.35
2022-11-29T15:01:10.407Z,40.25
2022-11-29T15:03:50.389Z,37.58
2022-11-29T15:06:26.264Z,35.08
2022-11-29T15:09:05.230Z,37.72
2022-11-29T15:11:57.792Z,34.97
2022-11-29T15:14:37.207Z,32.15
2022-11-29T15:17:20.981Z,27.08
2022-11-29T15:20:20.243Z,26.65
2022-11-29T15:22:54.284Z,25.67
2022-11-29T15:25:26.660Z,30.27
2022-11-29T15:27:58.221Z,29.52
2022-11-29T15:30:37.778Z,27.15
2022-11-29T15:33:24.353Z,27.00
2022-11-29T15:36:05.808Z,27.80
2022-11-29T15:38:45.599Z,28.30
2022-11-29T15:41:25.277Z,35.67
2022-11-29T15:44:00.490Z,25.70
2022-11-29T15:46:35.046Z,26.20
2022-11-29T15:49:17.168Z,25.37
2022-11-29T15:51:51.966Z,27.48
2022-11-29T15:57:04.116Z,31.58
2022-11-29T15:59:39.500Z,34.45
2022-11-29T16:02:17.825Z,30.40
2022-11-29T16:04:50.664Z,32.03
2022-11-29T16:07:24.501Z,30.17
2022-11-29T16:10:03.561Z,30.15
2022-11-29T16:12:35.940Z,34.63
2022-11-29T16:15:27.258Z,28.85
2022-11-29T16:17:58.763Z,25.63
2022-11-29T16:20:31.108Z,25.80
2022-11-29T16:23:16.921Z,21.98
2022-11-29T16:25:57.475Z,22.50
2022-11-29T16:28:37.604Z,24.77
2022-11-29T16:31:18.132Z,17.52
2022-11-29T16:34:22.856Z,24.50
2022-11-29T16:37:08.518Z,20.73
2022-11-29T16:39:43.986Z,20.58
2022-11-29T16:42:29.347Z,20.35
2022-11-29T16:45:29.934Z,19.80
2022-11-29T16:48:16.345Z,19.08
2022-11-29T16:51:09.258Z,21.10
2022-11-29T16:53:52.282Z,24.52
2022-11-29T16:56:31.735Z,20.38
2022-11-29T16:59:20.945Z,21.33
2022-11-29T17:02:02.576Z,21.63
2022-11-29T17:04:39.873Z,19.35
2022-11-29T17:07:16.212Z,18.95
2022-11-29T17:09:46.308Z,23.60
2022-11-29T17:12:20.073Z,20.92
2022-11-29T17:14:52.487Z,19.35
2022-11-29T17:17:24.275Z,18.48
2022-11-29T17:19:57.321Z,20.73
2022-11-29T17:22:30.980Z,17.13
2022-11-29T17:25:05.491Z,17.83
2022-11-29T17:27:42.975Z,16.25
2022-11-29T17:30:19.400Z,17.70
2022-11-29T17:32:57.305Z,19.50
2022-11-29T17:35:30.292Z,21.48
2022-11-29T17:38:05.893Z,16.98
2022-11-29T17:40:44.069Z,17.33
2022-11-29T17:43:23.410Z,16.17
2022-11-29T17:45:58.085Z,21.92
2022-11-29T17:48:35.770Z,20.53
2022-11-29T17:51:29.258Z,19.65
2022-11-29T17:54:11.158Z,18.73
2022-11-29T17:56:45.203Z,16.55
2022-11-29T17:59:16.407Z,17.77
2022-11-29T18:01:47.757Z,17.45
2022-11-29T18:04:25.050Z,14.73
2022-11-29T18:07:00.245Z,16.65
2022-11-29T18:09:35.268Z,15.63
2022-11-29T18:12:10.255Z,16.38
2022-11-29T18:14:47.845Z,14.98
2022-11-29T18:17:21.198Z,16.02
2022-11-29T18:20:00.324Z,14.90
2022-11-29T18:22:33.560Z,17.35
2022-11-29T18:25:37.060Z,17.00
2022-11-29T18:28:07.974Z,19.27
2022-11-29T18:33:22.184Z,16.45
2022-11-29T18:35:58.677Z,18.77
2022-11-29T18:38:31.915Z,14.35
2022-11-29T18:41:17.229Z,14.55
2022-11-29T18:43:49.541Z,16.30
2022-11-29T18:46:30.222Z,15.50
2022-11-29T18:49:15.135Z,15.07
2022-11-29T18:54:22.536Z,10.80
2022-11-29T18:56:59.109Z,13.88
2022-11-29T18:59:29.927Z,12.80
2022-11-29T19:02:09.379Z,13.57
2022-11-29T19:04:43.228Z,14.02
2022-11-29T19:07:17.947Z,11.52
2022-11-29T19:09:52.322Z,13.40
2022-11-29T19:12:23.708Z,11.98
2022-11-29T19:14:57.327Z,13.82
2022-11-29T19:17:30.654Z,13.35
2022-11-29T19:20:02.162Z,13.85
2022-11-29T19:22:36.763Z,15.40
2022-11-29T19:25:09.367Z,17.15
2022-11-29T19:27:43.951Z,16.65
2022-11-29T19:30:17.661Z,19.27
2022-11-29T19:32:52.869Z,18.15
2022-11-29T19:35:26.198Z,16.23
2022-11-29T19:37:58.815Z,17.92
2022-11-29T19:40:41.018Z,12.93
2022-11-29T19:43:13.019Z,15.48
2022-11-29T19:45:48.395Z,17.58
2022-11-29T19:48:21.914Z,18.02
2022-11-29T19:50:54.526Z,16.33
2022-11-29T19:53:30.750Z,22.70
2022-11-29T19:56:07.164Z,17.85
2022-11-29T19:58:45.363Z,26.35
2022-11-29T20:01:23.019Z,27.58
2022-11-29T20:04:06.652Z,17.30
2022-11-29T20:06:39.775Z,21.92
2022-11-29T20:09:17.374Z,17.75
2022-11-29T20:11:48.544Z,19.27
2022-11-29T20:14:20.539Z,24.05
2022-11-29T20:17:01.207Z,21.63
2022-11-29T20:19:38.926Z,23.25
2022-11-29T20:22:13.906Z,22.38
2022-11-29T20:24:47.235Z,26.38
2022-11-29T20:27:23.984Z,22.33
2022-11-29T20:29:55.195Z,21.85
2022-11-29T20:32:31.673Z,21.15
2022-11-29T20:35:06.998Z,20.60
2022-11-29T20:38:06.053Z,17.02
2022-11-29T20:40:49.956Z,31.65
2022-11-29T20:43:32.436Z,25.83
2022-11-29T20:46:06.850Z,26.00
2022-11-29T20:51:16.323Z,23.60
2022-11-29T20:53:50.931Z,24.58
2022-11-29T20:56:35.281Z,29.50
2022-11-29T20:59:16.995Z,24.33
2022-11-29T21:01:49.562Z,25.73
2022-11-29T21:04:27.096Z,24.80
2022-11-29T21:07:08.335Z,32.22
2022-11-29T21:09:41.074Z,25.65
2022-11-29T21:12:17.536Z,25.45
2022-11-29T21:14:52.726Z,23.55
2022-11-29T21:17:33.946Z,25.73
2022-11-29T21:20:07.719Z,34.25
2022-11-29T21:22:51.434Z,27.35
2022-11-29T21:25:31.232Z,26.27
2022-11-29T21:28:10.179Z,29.55
2022-11-29T21:30:45.476Z,37.17
2022-11-29T21:33:18.329Z,32.33
2022-11-29T21:35:54.052Z,31.48
2022-11-29T21:38:35.984Z,28.70
2022-11-29T21:41:08.277Z,29.27
2022-11-29T21:44:05.636Z,44.10
2022-11-29T21:46:38.558Z,31.10
2022-11-29T21:49:13.097Z,27.17
2022-11-29T21:51:45.645Z,38.28
2022-11-29T21:54:20.914Z,36.38
2022-11-29T21:56:52.865Z,40.63
2022-11-29T21:59:27.422Z,39.78
2022-11-29T22:02:02.563Z,40.22
2022-11-29T22:04:42.704Z,31.77
2022-11-29T22:07:19.753Z,35.08
2022-11-29T22:09:54.445Z,34.92
2022-11-29T22:12:34.135Z,33.92
2022-11-29T22:15:08.979Z,29.70
2022-11-29T22:17:52.211Z,28.98
2022-11-29T22:20:26.763Z,28.60
2022-11-29T22:23:00.456Z,25.70
2022-11-29T22:25:40.235Z,23.90
2022-11-29T22:28:13.477Z,25.73
2022-11-29T22:30:47.495Z,24.85
2022-11-29T22:33:23.544Z,22.07
2022-11-29T22:35:57.834Z,26.90
2022-11-29T22:38:34.034Z,22.92
2022-11-29T22:41:10.576Z,29.90
2022-11-29T22:43:45.864Z,29.10
2022-11-29T22:46:22.860Z,25.17
2022-11-29T22:48:56.811Z,22.17
2022-11-29T22:51:31.167Z,25.02
2022-11-29T22:54:07.085Z,23.80
2022-11-29T22:56:44.823Z,24.02
2022-11-29T22:59:17.314Z,29.30
2022-11-29T23:02:00.281Z,24.52
2022-11-29T23:04:33.438Z,26.02
2022-11-29T23:07:08.016Z,26.83
2022-11-29T23:12:20.344Z,31.48
2022-11-29T23:14:58.306Z,31.00
2022-11-29T23:17:32.750Z,28.77
2022-11-29T23:20:09.926Z,28.90
2022-11-29T23:22:42.877Z,26.23
2022-11-29T23:25:15.016Z,28.00
2022-11-29T23:27:53.593Z,33.13
2022-11-29T23:30:29.751Z,32.33
2022-11-29T23:33:08.855Z,29.75
2022-11-29T23:35:42.489Z,30.60
2022-11-29T23:38:19.016Z,28.52
2022-11-29T23:40:53.448Z,30.15
2022-11-29T23:43:36.559Z,31.70
2022-11-29T23:46:12.061Z,29.35
2022-11-29T23:48:50.365Z,31.30
2022-11-29T23:51:27.871Z,25.60
2022-11-29T23:54:05.832Z,31.77
2022-11-29T23:56:39.328Z,29.38
2022-11-29T23:59:23.779Z,30.23
